Terminal Aerodrome Forecast
Issued by NWS Indianapolis, IN

Home | Current Version | Previous Version | Text Only | Print | Product List | Glossary On
Versions: 1 2 3 4 5 6 7 8 9 10 11 12 13 14 15 16 17 18 19 20 21 22 23 24 25 26 27 28 29 30 31 32 33
000
FTUS43 KIND 182013 AAB
TAFIND
TAF AMD
KIND 182013Z 1820/1924 24007KT P6SM OVC015
      TEMPO 1820/1823 OVC008
     FM190100 22005KT P6SM BKN015
     FM190300 VRB03KT P6SM SCT010
     FM191500 12005KT P6SM BKN050
     FM192100 11006KT P6SM -SHRA OVC080
     FM192300 11007KT 4SM -SHRA OVC035=

USA.gov is the U.S. government's official web portal to all federal, state and local government web resources and services.